Marathon, Canada
Current Conditions -  °F | °C
As of 3:00 AM on Sunday 26 Oct 2014 (Local Time) from CYGQ Reporting Station
Overcast Overcast  
Wind Chill: 31°   Ceiling: 3000
Heat Index: 39°   Visibility: 10mi
Dew Point: 30°   Wind: 15mph
Humidity: 70%   Direction: 310°NW
Pressure: 29.77"   Gusts: 23mph
Location:  48.76°N, 86.35°W
Report Text: CYGQ 260700Z 31013G20KT 280V340 10SM OVC030 04/M01 A2977 RMKSC8 SLP096
Loading
Personal Weather Stations






























Interactive Weather Map
Tropical Storm Tracking
New forecast layout! Learn more

10-Day Weather Forecast

Advertisements
Track Severe Weather on mobile